Time,TemperatureF,DewpointF,PressureIn,WindDirection,WindDirectionDegrees,WindSpeedMPH,WindSpeedGustMPH,Humidity,HourlyPrecipIn,Conditions,Clouds,dailyrainin,SolarRadiationWatts/m^2,SoftwareType,DateUTC
2013-09-02 00:02:00,72.9,70.1,29.74,NNE,31,6.9,6.9,91,0.00,RA,,0.00,0.0,WeatherDisplay:10.37,2013-09-02 05:02:00,
2013-09-02 00:07:00,72.1,69.3,29.75,NNW,338,8.0,8.0,91,0.00,RA,,0.00,0.0,WeatherDisplay:10.37,2013-09-02 05:07:00,
2013-09-02 00:12:00,71.6,69.2,29.75,NW,314,12.7,12.7,92,0.00,CLR,,0.00,0.0,WeatherDisplay:10.37,2013-09-02 05:12:00,
2013-09-02 00:17:00,71.3,68.9,29.76,NNW,341,11.5,11.5,92,0.00,CLR,,0.00,0.0,WeatherDisplay:10.37,2013-09-02 05:17:00,
2013-09-02 00:22:00,70.8,68.4,29.76,North,355,13.8,13.8,92,0.00,CLR,,0.00,0.0,WeatherDisplay:10.37,2013-09-02 05:22:00,
2013-09-02 00:27:00,70.3,67.9,29.76,NNW,344,10.4,10.4,92,0.00,CLR,,0.00,0.0,WeatherDisplay:10.37,2013-09-02 05:27:00,
2013-09-02 00:32:00,69.8,67.4,29.76,North,355,10.4,10.4,92,0.00,CLR,,0.00,0.0,WeatherDisplay:10.37,2013-09-02 05:32:00,
2013-09-02 00:37:00,69.5,67.4,29.76,North,355,6.9,6.9,93,0.00,CLR,,0.00,0.0,WeatherDisplay:10.37,2013-09-02 05:37:00,
2013-09-02 00:42:00,69.2,67.1,29.76,NNW,348,3.5,3.5,93,0.00,CLR,,0.00,0.0,WeatherDisplay:10.37,2013-09-02 05:42:00,
2013-09-02 00:47:00,69.0,66.9,29.76,NNW,348,4.6,4.6,93,0.00,CLR,,0.00,0.0,WeatherDisplay:10.37,2013-09-02 05:47:00,
2013-09-02 00:52:00,68.8,66.7,29.76,NW,326,3.5,3.5,93,0.00,CLR,,0.00,0.0,WeatherDisplay:10.37,2013-09-02 05:52:00,
2013-09-02 00:57:00,68.7,66.6,29.76,NW,313,6.0,6.0,93,0.00,CLR,,0.00,0.0,WeatherDisplay:10.37,2013-09-02 05:57:00,
2013-09-02 01:02:00,68.7,66.6,29.77,NW,321,6.9,6.9,93,0.00,SCT,,0.00,0.0,WeatherDisplay:10.37,2013-09-02 06:02:00,
2013-09-02 01:07:00,68.6,66.5,29.77,NW,324,6.9,6.9,93,0.00,SCT,,0.00,0.0,WeatherDisplay:10.37,2013-09-02 06:07:00,
2013-09-02 01:12:00,68.4,66.3,29.77,NW,321,6.9,6.9,93,0.00,SCT,,0.00,0.0,WeatherDisplay:10.37,2013-09-02 06:12:00,
2013-09-02 01:17:00,68.2,66.1,29.77,NW,311,6.9,6.9,93,0.00,SCT,,0.00,0.0,WeatherDisplay:10.37,2013-09-02 06:17:00,
2013-09-02 01:22:00,68.2,66.1,29.77,NW,312,5.8,5.8,93,0.00,SCT,,0.00,0.0,WeatherDisplay:10.37,2013-09-02 06:22:00,
2013-09-02 01:27:00,68.2,66.1,29.77,NW,311,4.6,4.6,93,0.00,SCT,,0.00,0.0,WeatherDisplay:10.37,2013-09-02 06:27:00,
2013-09-02 01:32:00,68.1,66.0,29.77,NW,313,5.8,5.8,93,0.00,SCT,,0.00,0.0,WeatherDisplay:10.37,2013-09-02 06:32:00,
2013-09-02 01:37:00,68.0,65.9,29.77,NW,313,5.8,5.8,93,0.00,SCT,,0.00,0.0,WeatherDisplay:10.37,2013-09-02 06:37:00,
2013-09-02 01:42:00,68.0,65.9,29.77,NW,313,5.8,5.8,93,0.00,SCT,,0.00,0.0,WeatherDisplay:10.37,2013-09-02 06:42:00,
2013-09-02 01:47:00,67.9,65.8,29.78,NW,313,5.8,5.8,93,0.00,CLR,,0.00,0.0,WeatherDisplay:10.37,2013-09-02 06:47:00,
2013-09-02 01:52:00,67.9,65.8,29.78,NW,312,4.6,4.6,93,0.00,CLR,,0.00,0.0,WeatherDisplay:10.37,2013-09-02 06:52:00,
2013-09-02 01:57:00,67.9,65.8,29.77,NW,311,4.6,4.6,93,0.00,CLR,,0.00,0.0,WeatherDisplay:10.37,2013-09-02 06:57:00,
2013-09-02 02:02:00,67.9,65.8,29.77,NW,317,4.6,4.6,93,0.00,CLR,,0.00,0.0,WeatherDisplay:10.37,2013-09-02 07:02:00,
2013-09-02 02:07:00,67.8,65.7,29.77,NW,319,4.6,4.6,93,0.00,CLR,,0.00,0.0,WeatherDisplay:10.37,2013-09-02 07:07:00,
2013-09-02 02:12:00,67.7,65.6,29.77,NNW,334,6.0,6.0,93,0.00,CLR,,0.00,0.0,WeatherDisplay:10.37,2013-09-02 07:12:00,
2013-09-02 02:17:00,67.5,65.4,29.77,NNW,330,4.6,4.6,93,0.00,CLR,,0.00,0.0,WeatherDisplay:10.37,2013-09-02 07:17:00,
2013-09-02 02:22:00,67.4,65.3,29.77,NNW,327,4.6,4.6,93,0.00,CLR,,0.00,0.0,WeatherDisplay:10.37,2013-09-02 07:22:00,
2013-09-02 02:27:00,67.4,65.3,29.77,NW,325,4.6,4.6,93,0.00,CLR,,0.00,0.0,WeatherDisplay:10.37,2013-09-02 07:27:00,
2013-09-02 02:32:00,67.4,65.6,29.77,NW,311,5.8,5.8,94,0.00,CLR,,0.00,0.0,WeatherDisplay:10.37,2013-09-02 07:32:00,
2013-09-02 02:37:00,67.4,65.3,29.78,NW,311,4.6,4.6,93,0.00,CLR,,0.00,0.0,WeatherDisplay:10.37,2013-09-02 07:37:00,
2013-09-02 02:42:00,67.4,65.3,29.78,NW,311,5.8,5.8,93,0.00,CLR,,0.00,0.0,WeatherDisplay:10.37,2013-09-02 07:42:00,
2013-09-02 02:47:00,67.4,65.0,29.78,NW,315,5.8,5.8,92,0.00,CLR,,0.00,0.0,WeatherDisplay:10.37,2013-09-02 07:47:00,
2013-09-02 02:52:00,67.3,64.9,29.78,NW,313,5.8,5.8,92,0.00,CLR,,0.00,0.0,WeatherDisplay:10.37,2013-09-02 07:52:00,
2013-09-02 02:57:00,67.3,64.9,29.78,NW,312,5.0,5.0,92,0.00,CLR,,0.00,0.0,WeatherDisplay:10.37,2013-09-02 07:57:00,
2013-09-02 03:02:00,67.1,64.7,29.78,NW,312,3.5,3.5,92,0.00,CLR,,0.00,0.0,WeatherDisplay:10.37,2013-09-02 08:02:00,
2013-09-02 03:07:00,67.0,64.6,29.78,NW,312,4.6,4.6,92,0.00,CLR,,0.00,0.0,WeatherDisplay:10.37,2013-09-02 08:07:00,
2013-09-02 03:12:00,67.0,64.3,29.78,NW,312,3.5,3.5,91,0.00,CLR,,0.00,0.0,WeatherDisplay:10.37,2013-09-02 08:12:00,
2013-09-02 03:17:00,66.9,64.2,29.78,NW,312,3.5,3.5,91,0.00,CLR,,0.00,0.0,WeatherDisplay:10.37,2013-09-02 08:17:00,
2013-09-02 03:22:00,66.7,64.0,29.78,NW,312,2.3,2.3,91,0.00,CLR,,0.00,0.0,WeatherDisplay:10.37,2013-09-02 08:22:00,
2013-09-02 03:27:00,66.3,63.6,29.78,NW,312,3.5,3.5,91,0.00,CLR,,0.00,0.0,WeatherDisplay:10.37,2013-09-02 08:27:00,
2013-09-02 03:32:00,66.0,63.6,29.78,NW,315,6.0,6.0,92,0.00,CLR,,0.00,0.0,WeatherDisplay:10.37,2013-09-02 08:32:00,
2013-09-02 03:37:00,66.0,63.9,29.78,NW,313,6.9,6.9,93,0.00,CLR,,0.00,0.0,WeatherDisplay:10.37,2013-09-02 08:37:00,
2013-09-02 03:42:00,66.2,64.1,29.78,NNW,329,6.9,6.9,93,0.00,CLR,,0.00,0.0,WeatherDisplay:10.37,2013-09-02 08:42:00,
2013-09-02 03:47:00,66.3,64.2,29.79,NW,311,8.1,8.1,93,0.00,CLR,,0.00,0.0,WeatherDisplay:10.37,2013-09-02 08:47:00,
2013-09-02 03:52:00,66.3,64.2,29.79,NW,314,5.8,5.8,93,0.00,CLR,,0.00,0.0,WeatherDisplay:10.37,2013-09-02 08:52:00,
2013-09-02 03:57:00,66.3,64.2,29.79,NW,319,5.8,5.8,93,0.00,CLR,,0.00,0.0,WeatherDisplay:10.37,2013-09-02 08:57:00,
2013-09-02 04:02:00,66.2,64.1,29.79,NW,314,6.0,6.0,93,0.00,CLR,,0.00,0.0,WeatherDisplay:10.37,2013-09-02 09:02:00,
2013-09-02 04:07:00,66.1,64.0,29.79,NW,315,6.9,6.9,93,0.00,CLR,,0.00,0.0,WeatherDisplay:10.37,2013-09-02 09:07:00,
2013-09-02 04:12:00,66.0,63.9,29.79,NW,323,7.0,7.0,93,0.00,CLR,,0.00,0.0,WeatherDisplay:10.37,2013-09-02 09:12:00,
2013-09-02 04:17:00,65.9,63.8,29.79,NW,313,6.0,6.0,93,0.00,CLR,,0.00,0.0,WeatherDisplay:10.37,2013-09-02 09:17:00,
2013-09-02 04:22:00,65.8,63.7,29.80,NNW,328,8.1,8.1,93,0.00,CLR,,0.00,0.0,WeatherDisplay:10.37,2013-09-02 09:22:00,
2013-09-02 04:27:00,65.6,63.5,29.79,NW,321,5.8,5.8,93,0.00,CLR,,0.00,0.0,WeatherDisplay:10.37,2013-09-02 09:27:00,
2013-09-02 04:32:00,65.5,63.4,29.79,NW,319,6.9,6.9,93,0.00,CLR,,0.00,0.0,WeatherDisplay:10.37,2013-09-02 09:32:00,
2013-09-02 04:37:00,65.3,63.5,29.80,NW,319,6.9,6.9,94,0.00,CLR,,0.00,0.0,WeatherDisplay:10.37,2013-09-02 09:37:00,
2013-09-02 04:42:00,65.2,63.4,29.80,NW,317,5.8,5.8,94,0.00,CLR,,0.00,0.0,WeatherDisplay:10.37,2013-09-02 09:42:00,
2013-09-02 04:47:00,65.1,63.3,29.80,NW,315,6.0,6.0,94,0.00,CLR,,0.00,0.0,WeatherDisplay:10.37,2013-09-02 09:47:00,
2013-09-02 04:52:00,65.0,63.2,29.80,NW,317,6.9,6.9,94,0.00,CLR,,0.00,0.0,WeatherDisplay:10.37,2013-09-02 09:52:00,
2013-09-02 04:58:00,64.9,63.1,29.80,NW,310,9.2,9.2,94,0.00,CLR,,0.00,0.0,WeatherDisplay:10.37,2013-09-02 09:58:00,
2013-09-02 05:03:00,64.8,63.0,29.80,NNW,328,8.1,8.1,94,0.00,CLR,,0.00,0.0,WeatherDisplay:10.37,2013-09-02 10:03:00,
2013-09-02 05:08:00,64.7,62.9,29.81,NW,311,8.1,8.1,94,0.00,CLR,,0.00,0.0,WeatherDisplay:10.37,2013-09-02 10:08:00,
2013-09-02 05:13:00,64.6,62.8,29.81,NW,322,6.9,6.9,94,0.00,CLR,,0.00,0.0,WeatherDisplay:10.37,2013-09-02 10:13:00,
2013-09-02 05:18:00,64.5,62.7,29.81,NW,315,9.2,9.2,94,0.00,CLR,,0.00,0.0,WeatherDisplay:10.37,2013-09-02 10:18:00,
2013-09-02 05:23:00,64.4,62.6,29.81,NW,318,9.2,9.2,94,0.00,CLR,,0.00,0.0,WeatherDisplay:10.37,2013-09-02 10:23:00,
2013-09-02 05:28:00,64.3,62.5,29.81,NW,317,6.9,6.9,94,0.00,CLR,,0.00,0.0,WeatherDisplay:10.37,2013-09-02 10:28:00,
2013-09-02 05:33:00,64.2,62.4,29.81,NW,312,6.9,6.9,94,0.00,CLR,,0.00,0.0,WeatherDisplay:10.37,2013-09-02 10:33:00,
2013-09-02 05:38:00,64.1,62.3,29.82,NW,316,6.9,6.9,94,0.00,CLR,,0.00,0.0,WeatherDisplay:10.37,2013-09-02 10:38:00,
2013-09-02 05:43:00,64.1,62.3,29.82,NW,309,6.9,6.9,94,0.00,CLR,,0.00,0.0,WeatherDisplay:10.37,2013-09-02 10:43:00,
2013-09-02 05:48:00,64.0,62.2,29.82,NW,317,6.0,6.0,94,0.00,CLR,,0.00,0.0,WeatherDisplay:10.37,2013-09-02 10:48:00,
2013-09-02 05:53:00,64.0,62.2,29.82,NW,315,5.8,5.8,94,0.00,CLR,,0.00,0.0,WeatherDisplay:10.37,2013-09-02 10:53:00,
2013-09-02 05:58:00,64.1,62.3,29.82,NW,314,5.8,5.8,94,0.00,CLR,,0.00,0.0,WeatherDisplay:10.37,2013-09-02 10:58:00,
2013-09-02 06:03:00,64.1,62.3,29.82,NW,316,8.1,8.1,94,0.00,SCT,,0.00,0.0,WeatherDisplay:10.37,2013-09-02 11:03:00,
2013-09-02 06:08:00,64.2,62.4,29.83,NW,311,8.1,8.1,94,0.00,SCT,,0.00,0.0,WeatherDisplay:10.37,2013-09-02 11:08:00,
2013-09-02 06:13:00,64.2,62.4,29.83,NNW,327,6.9,6.9,94,0.00,SCT,,0.00,0.0,WeatherDisplay:10.37,2013-09-02 11:13:00,
2013-09-02 06:18:00,64.2,62.4,29.83,NW,305,8.1,8.1,94,0.00,SCT,,0.00,0.0,WeatherDisplay:10.37,2013-09-02 11:18:00,
2013-09-02 06:23:00,64.2,62.1,29.83,NW,319,5.8,5.8,93,0.00,SCT,,0.00,0.0,WeatherDisplay:10.37,2013-09-02 11:23:00,
2013-09-02 06:28:00,64.0,61.9,29.84,NW,321,5.8,5.8,93,0.00,SCT,,0.00,5.0,WeatherDisplay:10.37,2013-09-02 11:28:00,
2013-09-02 06:33:00,63.9,62.1,29.84,NW,319,6.0,6.0,94,0.00,SCT,,0.00,9.0,WeatherDisplay:10.37,2013-09-02 11:33:00,
2013-09-02 06:38:00,63.8,62.0,29.84,NW,315,5.8,5.8,94,0.00,SCT,,0.00,11.0,WeatherDisplay:10.37,2013-09-02 11:38:00,
2013-09-02 06:43:00,63.8,62.0,29.84,NW,323,5.8,5.8,94,0.00,SCT,,0.00,14.0,WeatherDisplay:10.37,2013-09-02 11:43:00,
2013-09-02 06:48:00,63.7,61.9,29.84,NW,319,8.1,8.1,94,0.00,SCT,,0.00,18.0,WeatherDisplay:10.37,2013-09-02 11:48:00,
2013-09-02 06:53:00,63.8,62.0,29.85,NW,318,5.8,5.8,94,0.00,SCT,,0.00,26.0,WeatherDisplay:10.37,2013-09-02 11:53:00,
2013-09-02 06:58:00,63.9,62.1,29.85,NW,323,8.1,8.1,94,0.00,SCT,,0.00,39.0,WeatherDisplay:10.37,2013-09-02 11:58:00,
2013-09-02 07:03:00,64.0,62.2,29.85,NW,314,5.0,5.0,94,0.00,BKN,,0.00,51.0,WeatherDisplay:10.37,2013-09-02 12:03:00,
2013-09-02 07:08:00,64.2,62.4,29.85,NW,324,8.1,8.1,94,0.00,BKN,,0.00,42.0,WeatherDisplay:10.37,2013-09-02 12:08:00,
2013-09-02 07:13:00,64.2,62.4,29.85,NW,325,6.9,6.9,94,0.00,BKN,,0.00,86.0,WeatherDisplay:10.37,2013-09-02 12:13:00,
2013-09-02 07:18:00,64.3,62.5,29.85,NNW,331,6.0,6.0,94,0.00,BKN,,0.00,93.0,WeatherDisplay:10.37,2013-09-02 12:18:00,
2013-09-02 07:23:00,64.5,62.7,29.85,NW,325,5.8,5.8,94,0.00,BKN,,0.00,107.0,WeatherDisplay:10.37,2013-09-02 12:23:00,
2013-09-02 07:28:00,64.7,62.9,29.86,NW,309,6.9,6.9,94,0.00,BKN,,0.00,118.0,WeatherDisplay:10.37,2013-09-02 12:28:00,
2013-09-02 07:33:00,65.0,63.2,29.86,NNW,333,6.9,6.9,94,0.00,BKN,,0.00,121.0,WeatherDisplay:10.37,2013-09-02 12:33:00,
2013-09-02 07:38:00,65.5,63.7,29.86,NNW,334,6.9,6.9,94,0.00,BKN,,0.00,174.0,WeatherDisplay:10.37,2013-09-02 12:38:00,
2013-09-02 07:43:00,65.6,63.5,29.86,NNW,329,5.0,5.0,93,0.00,BKN,,0.00,56.0,WeatherDisplay:10.37,2013-09-02 12:43:00,
2013-09-02 07:48:00,65.7,63.6,29.86,NNW,335,3.5,3.5,93,0.00,BKN,,0.00,69.0,WeatherDisplay:10.37,2013-09-02 12:48:00,
2013-09-02 07:53:00,65.9,64.1,29.86,NNW,337,6.9,6.9,94,0.00,BKN,,0.00,137.0,WeatherDisplay:10.37,2013-09-02 12:53:00,
2013-09-02 07:58:00,66.3,64.2,29.86,NNW,344,4.6,4.6,93,0.00,BKN,,0.00,63.0,WeatherDisplay:10.37,2013-09-02 12:58:00,
2013-09-02 08:03:00,66.4,64.3,29.86,NNW,337,5.8,5.8,93,0.00,BKN,,0.00,158.0,WeatherDisplay:10.37,2013-09-02 13:03:00,
2013-09-02 08:08:00,66.9,64.8,29.87,NNW,337,8.1,8.1,93,0.00,BKN,,0.00,269.0,WeatherDisplay:10.37,2013-09-02 13:08:00,
2013-09-02 08:13:00,67.4,65.0,29.87,NW,322,10.4,10.4,92,0.00,BKN,,0.00,262.0,WeatherDisplay:10.37,2013-09-02 13:13:00,
2013-09-02 08:18:00,67.8,65.1,29.87,NNW,344,9.2,9.2,91,0.00,SCT,,0.00,272.0,WeatherDisplay:10.37,2013-09-02 13:18:00,
2013-09-02 08:23:00,68.1,65.1,29.87,NNW,344,10.4,10.4,90,0.00,SCT,,0.00,285.0,WeatherDisplay:10.37,2013-09-02 13:23:00,
2013-09-02 08:28:00,68.5,65.8,29.87,NW,324,9.2,9.2,91,0.00,SCT,,0.00,299.0,WeatherDisplay:10.37,2013-09-02 13:28:00,
2013-09-02 08:33:00,69.0,65.9,29.87,NNW,344,9.2,9.2,90,0.00,SCT,,0.00,316.0,WeatherDisplay:10.37,2013-09-02 13:33:00,
2013-09-02 08:38:00,69.3,65.9,29.87,North,350,8.1,8.1,89,0.00,SCT,,0.00,334.0,WeatherDisplay:10.37,2013-09-02 13:38:00,
2013-09-02 08:43:00,69.8,66.7,29.87,NNW,342,9.2,9.2,90,0.00,SCT,,0.00,353.0,WeatherDisplay:10.37,2013-09-02 13:43:00,
2013-09-02 08:48:00,70.2,66.5,29.87,NNE,22,8.1,8.1,88,0.00,SCT,,0.00,376.0,WeatherDisplay:10.37,2013-09-02 13:48:00,
2013-09-02 08:53:00,70.4,66.7,29.88,North,5,9.2,9.2,88,0.00,SCT,,0.00,403.0,WeatherDisplay:10.37,2013-09-02 13:53:00,
2013-09-02 08:58:00,70.8,67.1,29.88,NW,323,7.0,7.0,88,0.00,SCT,,0.00,425.0,WeatherDisplay:10.37,2013-09-02 13:58:00,
2013-09-02 09:03:00,71.1,67.0,29.88,North,355,9.2,9.2,87,0.00,SCT,,0.00,443.0,WeatherDisplay:10.37,2013-09-02 14:03:00,
2013-09-02 09:08:00,71.4,67.3,29.88,North,360,7.0,7.0,87,0.00,SCT,,0.00,454.0,WeatherDisplay:10.37,2013-09-02 14:08:00,
2013-09-02 09:13:00,71.8,67.0,29.88,North,360,9.2,9.2,85,0.00,SCT,,0.00,471.0,WeatherDisplay:10.37,2013-09-02 14:13:00,
2013-09-02 09:18:00,72.2,67.4,29.88,North,360,6.9,6.9,85,0.00,SCT,,0.00,485.0,WeatherDisplay:10.37,2013-09-02 14:18:00,
2013-09-02 09:23:00,72.3,67.2,29.88,NE,48,10.4,10.4,84,0.00,SCT,,0.00,508.0,WeatherDisplay:10.37,2013-09-02 14:23:00,
2013-09-02 09:28:00,72.7,67.9,29.89,NNE,23,9.0,9.0,85,0.00,SCT,,0.00,577.0,WeatherDisplay:10.37,2013-09-02 14:28:00,
2013-09-02 09:34:00,72.7,67.6,29.89,North,5,6.0,6.6,84,0.00,CLR,,0.00,613.0,WeatherDisplay:10.37,2013-09-02 14:34:00,
2013-09-02 09:39:00,73.1,68.3,29.89,NNE,22,8.1,8.1,85,0.00,CLR,,0.00,654.0,WeatherDisplay:10.37,2013-09-02 14:39:00,
2013-09-02 09:44:00,73.7,68.2,29.89,NNE,30,9.2,9.2,83,0.00,CLR,,0.00,628.0,WeatherDisplay:10.37,2013-09-02 14:44:00,
2013-09-02 09:49:00,74.0,67.8,29.89,North,355,9.2,9.2,81,0.00,SCT,,0.00,534.0,WeatherDisplay:10.37,2013-09-02 14:49:00,
2013-09-02 09:54:00,74.2,67.6,29.89,NNE,32,12.7,12.7,80,0.00,SCT,,0.00,613.0,WeatherDisplay:10.37,2013-09-02 14:54:00,
2013-09-02 09:59:00,74.2,67.3,29.89,NNE,15,9.0,9.0,79,0.00,SCT,,0.00,671.0,WeatherDisplay:10.37,2013-09-02 14:59:00,
2013-09-02 10:04:00,74.9,67.6,29.89,North,351,11.5,11.5,78,0.00,BKN,,0.00,708.0,WeatherDisplay:10.37,2013-09-02 15:04:00,
2013-09-02 10:09:00,75.4,67.3,29.89,North,11,9.0,9.0,76,0.00,BKN,,0.00,721.0,WeatherDisplay:10.37,2013-09-02 15:09:00,
2013-09-02 10:14:00,75.6,66.7,29.89,NNE,15,8.1,8.1,74,0.00,BKN,,0.00,134.0,WeatherDisplay:10.37,2013-09-02 15:14:00,
2013-09-02 10:19:00,75.1,66.2,29.89,North,360,9.2,9.2,74,0.00,BKN,,0.00,134.0,WeatherDisplay:10.37,2013-09-02 15:19:00,
2013-09-02 10:24:00,75.0,66.5,29.89,NE,34,6.9,6.9,75,0.00,BKN,,0.00,719.0,WeatherDisplay:10.37,2013-09-02 15:24:00,
2013-09-02 10:29:00,75.2,67.1,29.89,NE,49,6.9,6.9,76,0.00,BKN,,0.00,582.0,WeatherDisplay:10.37,2013-09-02 15:29:00,
2013-09-02 10:34:00,75.4,66.5,29.90,North,5,7.0,7.0,74,0.00,BKN,,0.00,582.0,WeatherDisplay:10.37,2013-09-02 15:34:00,
2013-09-02 10:39:00,74.9,65.7,29.89,North,360,9.2,9.2,73,0.00,BKN,,0.00,761.0,WeatherDisplay:10.37,2013-09-02 15:39:00,
2013-09-02 10:44:00,75.7,66.0,29.90,North,5,11.5,11.5,72,0.00,BKN,,0.00,788.0,WeatherDisplay:10.37,2013-09-02 15:44:00,
2013-09-02 10:49:00,76.3,66.6,29.90,North,360,8.1,8.1,72,0.00,BKN,,0.00,842.0,WeatherDisplay:10.37,2013-09-02 15:49:00,
2013-09-02 10:54:00,76.9,66.4,29.90,NE,44,8.1,8.1,70,0.00,BKN,,0.00,861.0,WeatherDisplay:10.37,2013-09-02 15:54:00,
2013-09-02 10:59:00,76.7,65.3,29.90,NNE,23,8.1,8.1,68,0.00,BKN,,0.00,221.0,WeatherDisplay:10.37,2013-09-02 15:59:00,
2013-09-02 11:04:00,76.3,66.2,29.89,NE,41,11.0,11.0,71,0.00,SCT,,0.00,842.0,WeatherDisplay:10.37,2013-09-02 16:04:00,
2013-09-02 11:09:00,77.5,66.1,29.90,ENE,63,8.0,8.0,68,0.00,SCT,,0.00,868.0,WeatherDisplay:10.37,2013-09-02 16:09:00,
2013-09-02 11:14:00,77.7,65.0,29.89,NNE,23,4.6,4.6,65,0.00,SCT,,0.00,223.0,WeatherDisplay:10.37,2013-09-02 16:14:00,
2013-09-02 11:19:00,77.6,66.2,29.89,NNE,19,6.9,6.9,68,0.00,SCT,,0.00,953.0,WeatherDisplay:10.37,2013-09-02 16:19:00,
2013-09-02 11:24:00,77.2,63.6,29.89,North,360,6.9,6.9,63,0.00,SCT,,0.00,169.0,WeatherDisplay:10.37,2013-09-02 16:24:00,
2013-09-02 11:29:00,77.1,63.5,29.89,NNE,24,5.8,5.8,63,0.00,SCT,,0.00,891.0,WeatherDisplay:10.37,2013-09-02 16:29:00,
2013-09-02 11:34:00,77.8,65.1,29.89,NW,323,5.0,5.0,65,0.00,SCT,,0.00,911.0,WeatherDisplay:10.37,2013-09-02 16:34:00,
2013-09-02 11:39:00,77.8,66.0,29.89,NE,48,8.1,8.1,67,0.00,SCT,,0.00,494.0,WeatherDisplay:10.37,2013-09-02 16:39:00,
2013-09-02 11:44:00,77.8,66.0,29.89,NNW,329,5.8,5.8,67,0.00,SCT,,0.00,981.0,WeatherDisplay:10.37,2013-09-02 16:44:00,
2013-09-02 11:49:00,78.1,66.2,29.89,North,11,5.0,5.0,67,0.00,SCT,,0.00,974.0,WeatherDisplay:10.37,2013-09-02 16:49:00,
2013-09-02 11:54:00,78.5,64.9,29.89,NNW,342,3.5,3.5,63,0.00,SCT,,0.00,988.0,WeatherDisplay:10.37,2013-09-02 16:54:00,
2013-09-02 11:59:00,78.5,64.9,29.89,NNE,18,5.0,5.0,63,0.00,SCT,,0.00,278.0,WeatherDisplay:10.37,2013-09-02 16:59:00,
2013-09-02 12:04:00,77.8,64.6,29.89,NE,40,8.0,8.0,64,0.00,BKN,,0.00,209.0,WeatherDisplay:10.37,2013-09-02 17:04:00,
2013-09-02 12:09:00,77.3,63.3,29.90,North,355,5.8,5.8,62,0.00,BKN,,0.00,178.0,WeatherDisplay:10.37,2013-09-02 17:09:00,
2013-09-02 12:14:00,76.8,63.2,29.90,North,350,5.8,5.8,63,0.00,BKN,,0.00,225.0,WeatherDisplay:10.37,2013-09-02 17:14:00,
2013-09-02 12:19:00,76.7,64.5,29.90,NNE,24,5.8,5.8,66,0.00,SCT,,0.00,244.0,WeatherDisplay:10.37,2013-09-02 17:19:00,
2013-09-02 12:24:00,77.1,65.3,29.89,NNE,20,6.0,6.0,67,0.00,SCT,,0.00,283.0,WeatherDisplay:10.37,2013-09-02 17:24:00,
2013-09-02 12:29:00,77.3,64.6,29.89,North,5,5.8,5.8,65,0.00,SCT,,0.00,211.0,WeatherDisplay:10.37,2013-09-02 17:29:00,
2013-09-02 12:34:00,77.0,63.9,29.89,NNW,331,8.1,8.1,64,0.00,BKN,,0.00,165.0,WeatherDisplay:10.37,2013-09-02 17:34:00,
2013-09-02 12:39:00,76.4,63.8,29.89,NW,313,3.5,3.5,65,0.00,BKN,,0.00,162.0,WeatherDisplay:10.37,2013-09-02 17:39:00,
2013-09-02 12:44:00,76.3,65.4,29.89,NW,305,3.5,3.5,69,0.00,BKN,,0.00,893.0,WeatherDisplay:10.37,2013-09-02 17:44:00,
2013-09-02 12:49:00,77.0,64.8,29.89,NNW,348,5.8,5.8,66,0.00,SCT,,0.00,893.0,WeatherDisplay:10.37,2013-09-02 17:49:00,
2013-09-02 12:54:00,78.0,66.2,29.89,NW,314,4.0,4.0,67,0.00,SCT,,0.00,896.0,WeatherDisplay:10.37,2013-09-02 17:54:00,
2013-09-02 12:59:00,78.9,63.8,29.89,WNW,300,10.4,10.4,60,0.00,SCT,,0.00,893.0,WeatherDisplay:10.37,2013-09-02 17:59:00,
2013-09-02 13:04:00,79.1,64.0,29.89,West,281,5.8,5.8,60,0.00,SCT,,0.00,940.0,WeatherDisplay:10.37,2013-09-02 18:04:00,
2013-09-02 13:09:00,79.1,64.5,29.89,NNW,344,5.8,5.8,61,0.00,SCT,,0.00,937.0,WeatherDisplay:10.37,2013-09-02 18:09:00,
2013-09-02 13:14:00,79.6,65.0,29.89,NNW,336,8.1,8.1,61,0.00,SCT,,0.00,946.0,WeatherDisplay:10.37,2013-09-02 18:14:00,
2013-09-02 13:19:00,79.4,62.8,29.89,North,350,3.5,3.5,57,0.00,SCT,,0.00,237.0,WeatherDisplay:10.37,2013-09-02 18:19:00,
2013-09-02 13:24:00,78.8,62.8,29.88,WNW,301,5.0,5.0,58,0.00,SCT,,0.00,202.0,WeatherDisplay:10.37,2013-09-02 18:24:00,
2013-09-02 13:29:00,78.6,64.9,29.88,NNE,22,6.9,6.9,63,0.00,SCT,,0.00,958.0,WeatherDisplay:10.37,2013-09-02 18:29:00,
2013-09-02 13:34:00,79.3,63.7,29.88,NNW,340,12.7,12.7,59,0.00,SCT,,0.00,889.0,WeatherDisplay:10.37,2013-09-02 18:34:00,
2013-09-02 13:39:00,79.6,63.5,29.88,WNW,288,5.0,5.0,58,0.00,SCT,,0.00,1004.0,WeatherDisplay:10.37,2013-09-02 18:39:00,
2013-09-02 13:44:00,79.9,64.3,29.88,NW,323,9.2,9.2,59,0.00,SCT,,0.00,1021.0,WeatherDisplay:10.37,2013-09-02 18:44:00,
2013-09-02 13:49:00,79.1,63.5,29.88,NNW,344,11.5,11.5,59,0.00,SCT,,0.00,213.0,WeatherDisplay:10.37,2013-09-02 18:49:00,
2013-09-02 13:54:00,78.8,63.7,29.88,NNW,337,6.9,6.9,60,0.00,SCT,,0.00,276.0,WeatherDisplay:10.37,2013-09-02 18:54:00,
2013-09-02 13:59:00,78.5,63.0,29.89,NNW,346,9.2,9.2,59,0.00,SCT,,0.00,183.0,WeatherDisplay:10.37,2013-09-02 18:59:00,
2013-09-02 14:04:00,78.3,63.7,29.88,NW,317,9.2,9.2,61,0.00,SCT,,0.00,851.0,WeatherDisplay:10.37,2013-09-02 19:04:00,
2013-09-02 14:09:00,78.5,63.0,29.88,WNW,301,8.1,8.1,59,0.00,SCT,,0.00,144.0,WeatherDisplay:10.37,2013-09-02 19:09:00,
2013-09-02 14:14:00,78.3,63.7,29.88,NW,320,9.0,9.0,61,0.00,SCT,,0.00,127.0,WeatherDisplay:10.37,2013-09-02 19:14:00,
2013-09-02 14:19:00,77.7,63.6,29.88,NW,311,6.9,6.9,62,0.00,SCT,,0.00,142.0,WeatherDisplay:10.37,2013-09-02 19:19:00,
2013-09-02 14:24:00,78.7,64.6,29.87,West,271,8.1,8.1,62,0.00,SCT,,0.00,858.0,WeatherDisplay:10.37,2013-09-02 19:24:00,
2013-09-02 14:29:00,79.6,65.9,29.87,NW,304,11.5,11.5,63,0.00,SCT,,0.00,856.0,WeatherDisplay:10.37,2013-09-02 19:29:00,
2013-09-02 14:34:00,79.8,65.2,29.87,NW,320,15.0,15.0,61,0.00,SCT,,0.00,856.0,WeatherDisplay:10.37,2013-09-02 19:34:00,
2013-09-02 14:39:00,80.0,63.9,29.87,WNW,286,8.1,8.1,58,0.00,SCT,,0.00,789.0,WeatherDisplay:10.37,2013-09-02 19:39:00,
2013-09-02 14:44:00,80.3,63.2,29.87,WNW,286,13.0,13.0,56,0.00,SCT,,0.00,860.0,WeatherDisplay:10.37,2013-09-02 19:44:00,
2013-09-02 14:49:00,80.3,63.2,29.87,WSW,254,9.2,9.2,56,0.00,SCT,,0.00,884.0,WeatherDisplay:10.37,2013-09-02 19:49:00,
2013-09-02 14:54:00,79.9,63.3,29.87,NW,310,10.4,10.4,57,0.00,SCT,,0.00,225.0,WeatherDisplay:10.37,2013-09-02 19:54:00,
2013-09-02 14:59:00,80.0,65.3,29.87,WNW,302,15.0,15.0,61,0.00,SCT,,0.00,886.0,WeatherDisplay:10.37,2013-09-02 19:59:00,
2013-09-02 15:04:00,80.3,64.2,29.87,NW,306,9.2,9.2,58,0.00,BKN,,0.00,872.0,WeatherDisplay:10.37,2013-09-02 20:04:00,
2013-09-02 15:09:00,80.3,64.2,29.87,NW,309,12.7,12.7,58,0.00,BKN,,0.00,868.0,WeatherDisplay:10.37,2013-09-02 20:09:00,
2013-09-02 15:14:00,79.5,64.9,29.87,WNW,302,11.5,11.5,61,0.00,BKN,,0.00,202.0,WeatherDisplay:10.37,2013-09-02 20:14:00,
2013-09-02 15:19:00,78.4,63.8,29.87,NW,314,10.4,10.4,61,0.00,BKN,,0.00,149.0,WeatherDisplay:10.37,2013-09-02 20:19:00,
2013-09-02 15:24:00,77.9,64.3,29.87,NW,313,5.8,5.8,63,0.00,BKN,,0.00,179.0,WeatherDisplay:10.37,2013-09-02 20:24:00,
2013-09-02 15:29:00,78.5,64.9,29.87,WNW,303,8.1,8.1,63,0.00,BKN,,0.00,779.0,WeatherDisplay:10.37,2013-09-02 20:29:00,
2013-09-02 15:34:00,79.0,63.9,29.87,NW,315,8.1,8.1,60,0.00,BKN,,0.00,246.0,WeatherDisplay:10.37,2013-09-02 20:34:00,
2013-09-02 15:39:00,78.8,64.2,29.87,NNW,348,11.5,11.5,61,0.00,BKN,,0.00,213.0,WeatherDisplay:10.37,2013-09-02 20:39:00,
2013-09-02 15:44:00,78.4,64.3,29.87,NNW,344,8.1,8.1,62,0.00,BKN,,0.00,241.0,WeatherDisplay:10.37,2013-09-02 20:44:00,
2013-09-02 15:49:00,78.4,64.8,29.87,NNW,342,6.9,6.9,63,0.00,SCT,,0.00,156.0,WeatherDisplay:10.37,2013-09-02 20:49:00,
2013-09-02 15:54:00,78.1,64.0,29.87,NNW,336,8.1,8.1,62,0.00,SCT,,0.00,105.0,WeatherDisplay:10.37,2013-09-02 20:54:00,
2013-09-02 15:59:00,77.6,63.5,29.87,NNW,341,9.2,9.2,62,0.00,SCT,,0.00,104.0,WeatherDisplay:10.37,2013-09-02 20:59:00,
2013-09-02 16:05:00,77.4,63.8,29.87,NNE,13,6.9,6.9,63,0.00,CLR,,0.00,128.0,WeatherDisplay:10.37,2013-09-02 21:05:00,
2013-09-02 16:10:00,77.2,64.1,29.87,NNW,348,6.0,6.0,64,0.00,CLR,,0.00,114.0,WeatherDisplay:10.37,2013-09-02 21:10:00,
2013-09-02 16:15:00,77.3,63.3,29.87,NNW,348,12.7,12.7,62,0.00,CLR,,0.00,225.0,WeatherDisplay:10.37,2013-09-02 21:15:00,
2013-09-02 16:20:00,77.9,63.8,29.87,NNW,344,10.4,10.4,62,0.00,CLR,,0.00,575.0,WeatherDisplay:10.37,2013-09-02 21:20:00,
2013-09-02 16:25:00,78.7,63.6,29.86,NNW,348,5.0,5.0,60,0.00,CLR,,0.00,214.0,WeatherDisplay:10.37,2013-09-02 21:25:00,
2013-09-02 16:30:00,79.2,63.6,29.86,NW,309,11.0,11.0,59,0.00,CLR,,0.00,563.0,WeatherDisplay:10.37,2013-09-02 21:30:00,
2013-09-02 16:35:00,79.6,65.4,29.86,North,351,13.8,13.8,62,0.00,SCT,,0.00,494.0,WeatherDisplay:10.37,2013-09-02 21:35:00,
2013-09-02 16:40:00,78.7,65.0,29.86,NE,37,15.0,15.0,63,0.00,SCT,,0.00,158.0,WeatherDisplay:10.37,2013-09-02 21:40:00,
2013-09-02 16:45:00,77.7,65.0,29.86,NNE,16,11.5,11.5,65,0.00,SCT,,0.00,503.0,WeatherDisplay:10.37,2013-09-02 21:45:00,
2013-09-02 16:50:00,77.3,65.1,29.86,North,10,11.5,11.5,66,0.00,SCT,,0.00,439.0,WeatherDisplay:10.37,2013-09-02 21:50:00,
2013-09-02 16:55:00,77.3,65.5,29.87,NNE,29,9.0,9.0,67,0.00,SCT,,0.00,396.0,WeatherDisplay:10.37,2013-09-02 21:55:00,
2013-09-02 17:00:00,77.5,65.2,29.87,North,11,11.5,11.5,66,0.00,SCT,,0.00,323.0,WeatherDisplay:10.37,2013-09-02 22:00:00,
2013-09-02 17:05:00,77.4,65.1,29.87,NNE,29,10.0,10.0,66,0.00,SCT,,0.00,355.0,WeatherDisplay:10.37,2013-09-02 22:05:00,
2013-09-02 17:10:00,77.5,64.8,29.87,NNE,17,11.5,11.5,65,0.00,SCT,,0.00,345.0,WeatherDisplay:10.37,2013-09-02 22:10:00,
2013-09-02 17:15:00,77.3,65.1,29.87,NNE,23,11.5,11.5,66,0.00,SCT,,0.00,302.0,WeatherDisplay:10.37,2013-09-02 22:15:00,
2013-09-02 17:20:00,76.9,64.7,29.87,North,360,9.2,9.2,66,0.00,BKN,,0.00,72.0,WeatherDisplay:10.37,2013-09-02 22:20:00,
2013-09-02 17:25:00,76.7,64.9,29.87,NNE,19,6.9,6.9,67,0.00,BKN,,0.00,246.0,WeatherDisplay:10.37,2013-09-02 22:25:00,
2013-09-02 17:30:00,76.6,65.2,29.87,NE,46,6.9,6.9,68,0.00,BKN,,0.00,91.0,WeatherDisplay:10.37,2013-09-02 22:30:00,
2013-09-02 17:35:00,76.1,64.8,29.87,NNE,20,10.0,10.0,68,0.00,BKN,,0.00,192.0,WeatherDisplay:10.37,2013-09-02 22:35:00,
2013-09-02 17:40:00,75.3,64.8,29.87,NNE,18,12.0,12.0,70,0.00,BKN,,0.00,72.0,WeatherDisplay:10.37,2013-09-02 22:40:00,
2013-09-02 17:45:00,74.4,64.4,29.87,NNE,26,11.5,11.5,71,0.00,BKN,,0.00,102.0,WeatherDisplay:10.37,2013-09-02 22:45:00,
2013-09-02 17:50:00,73.7,64.5,29.87,NNE,17,13.8,13.8,73,0.00,BKN,,0.00,109.0,WeatherDisplay:10.37,2013-09-02 22:50:00,
2013-09-02 17:55:00,73.0,64.2,29.88,NNE,15,15.0,15.0,74,0.00,BKN,,0.00,179.0,WeatherDisplay:10.37,2013-09-02 22:55:00,
2013-09-02 18:00:00,72.7,64.7,29.88,North,11,9.0,9.0,76,0.00,BKN,,0.00,227.0,WeatherDisplay:10.37,2013-09-02 23:00:00,
2013-09-02 18:05:00,73.0,64.6,29.88,NNE,13,11.5,11.5,75,0.00,BKN,,0.00,253.0,WeatherDisplay:10.37,2013-09-02 23:05:00,
2013-09-02 18:10:00,73.3,64.9,29.89,North,9,8.0,8.0,75,0.00,BKN,,0.00,192.0,WeatherDisplay:10.37,2013-09-02 23:10:00,
2013-09-02 18:15:00,72.9,64.1,29.89,North,360,12.7,12.7,74,0.00,BKN,,0.00,100.0,WeatherDisplay:10.37,2013-09-02 23:15:00,
2013-09-02 18:20:00,72.4,64.0,29.89,NNE,27,12.7,12.7,75,0.00,BKN,,0.00,146.0,WeatherDisplay:10.37,2013-09-02 23:20:00,
2013-09-02 18:25:00,72.0,64.0,29.89,NE,48,11.5,11.5,76,0.00,BKN,,0.00,65.0,WeatherDisplay:10.37,2013-09-02 23:25:00,
2013-09-02 18:30:00,71.4,63.4,29.89,NNE,28,11.5,11.5,76,0.00,BKN,,0.00,65.0,WeatherDisplay:10.37,2013-09-02 23:30:00,
2013-09-02 18:35:00,70.8,63.2,29.89,NE,40,11.5,11.5,77,0.00,OVC,,0.00,42.0,WeatherDisplay:10.37,2013-09-02 23:35:00,
2013-09-02 18:40:00,70.3,63.1,29.89,North,5,11.5,11.5,78,0.00,OVC,,0.00,30.0,WeatherDisplay:10.37,2013-09-02 23:40:00,
2013-09-02 18:45:00,69.9,63.1,29.89,NNE,19,9.2,9.2,79,0.00,OVC,,0.00,25.0,WeatherDisplay:10.37,2013-09-02 23:45:00,
2013-09-02 18:50:00,69.5,63.1,29.89,NE,54,11.5,11.5,80,0.00,OVC,,0.00,21.0,WeatherDisplay:10.37,2013-09-02 23:50:00,
2013-09-02 18:55:00,69.1,62.7,29.90,NE,44,12.0,12.0,80,0.00,OVC,,0.00,19.0,WeatherDisplay:10.37,2013-09-02 23:55:00,
2013-09-02 19:00:00,68.8,62.7,29.90,NNE,31,10.4,10.4,81,0.00,OVC,,0.00,16.0,WeatherDisplay:10.37,2013-09-03 00:00:00,
2013-09-02 19:05:00,68.4,62.7,29.90,NNE,24,11.5,11.5,82,0.00,SCT,,0.00,12.0,WeatherDisplay:10.37,2013-09-03 00:05:00,
2013-09-02 19:10:00,68.0,62.3,29.90,NE,44,9.2,9.2,82,0.00,SCT,,0.00,11.0,WeatherDisplay:10.37,2013-09-03 00:10:00,
2013-09-02 19:15:00,67.6,62.3,29.90,NE,37,10.4,10.4,83,0.00,SCT,,0.00,7.0,WeatherDisplay:10.37,2013-09-03 00:15:00,
2013-09-02 19:20:00,67.3,62.0,29.90,NE,34,9.2,9.2,83,0.00,SCT,,0.00,5.0,WeatherDisplay:10.37,2013-09-03 00:20:00,
2013-09-02 19:25:00,67.0,62.0,29.90,NE,40,6.9,6.9,84,0.00,SCT,,0.00,0.0,WeatherDisplay:10.37,2013-09-03 00:25:00,
2013-09-02 19:30:00,66.6,61.9,29.90,NNE,24,4.6,4.6,85,0.00,SCT,,0.00,0.0,WeatherDisplay:10.37,2013-09-03 00:30:00,
2013-09-02 19:35:00,66.1,61.8,29.91,North,5,6.9,6.9,86,0.00,CLR,,0.00,0.0,WeatherDisplay:10.37,2013-09-03 00:35:00,
2013-09-02 19:40:00,65.9,61.6,29.91,NNE,24,6.9,6.9,86,0.00,CLR,,0.00,0.0,WeatherDisplay:10.37,2013-09-03 00:40:00,
2013-09-02 19:45:00,65.7,61.4,29.91,NNE,30,6.9,6.9,86,0.00,CLR,,0.00,0.0,WeatherDisplay:10.37,2013-09-03 00:45:00,
2013-09-02 19:50:00,65.4,61.1,29.91,NNE,32,4.6,4.6,86,0.00,CLR,,0.00,0.0,WeatherDisplay:10.37,2013-09-03 00:50:00,
2013-09-02 19:55:00,65.1,61.1,29.91,NNE,28,6.0,6.0,87,0.00,CLR,,0.00,0.0,WeatherDisplay:10.37,2013-09-03 00:55:00,
2013-09-02 20:00:00,64.8,60.8,29.91,NNE,30,4.6,4.6,87,0.00,CLR,,0.00,0.0,WeatherDisplay:10.37,2013-09-03 01:00:00,
2013-09-02 20:05:00,64.6,61.0,29.92,NNE,22,5.8,5.8,88,0.00,CLR,,0.00,0.0,WeatherDisplay:10.37,2013-09-03 01:05:00,
2013-09-02 20:10:00,64.4,60.8,29.92,NNE,19,5.8,5.8,88,0.00,CLR,,0.00,0.0,WeatherDisplay:10.37,2013-09-03 01:10:00,
2013-09-02 20:15:00,64.2,60.6,29.92,NNE,32,5.0,5.0,88,0.00,CLR,,0.00,0.0,WeatherDisplay:10.37,2013-09-03 01:15:00,
2013-09-02 20:20:00,64.0,60.7,29.92,North,11,3.5,3.5,89,0.00,CLR,,0.00,0.0,WeatherDisplay:10.37,2013-09-03 01:20:00,
2013-09-02 20:25:00,63.7,60.4,29.92,NNE,25,3.5,3.5,89,0.00,CLR,,0.00,0.0,WeatherDisplay:10.37,2013-09-03 01:25:00,
2013-09-02 20:30:00,63.4,60.4,29.93,NNE,25,3.5,3.5,90,0.00,CLR,,0.00,0.0,WeatherDisplay:10.37,2013-09-03 01:30:00,
2013-09-02 20:35:00,63.1,60.1,29.93,NNE,19,3.5,3.5,90,0.00,SCT,,0.00,0.0,WeatherDisplay:10.37,2013-09-03 01:35:00,
2013-09-02 20:40:00,62.8,60.1,29.93,NNE,19,3.5,3.5,91,0.00,SCT,,0.00,0.0,WeatherDisplay:10.37,2013-09-03 01:40:00,
2013-09-02 20:45:00,62.6,59.9,29.93,NNE,19,3.5,3.5,91,0.00,SCT,,0.00,0.0,WeatherDisplay:10.37,2013-09-03 01:45:00,
2013-09-02 20:50:00,62.4,59.7,29.93,NNE,19,3.5,3.5,91,0.00,SCT,,0.00,0.0,WeatherDisplay:10.37,2013-09-03 01:50:00,
2013-09-02 20:55:00,62.3,59.9,29.93,NNE,19,3.5,3.5,92,0.00,SCT,,0.00,0.0,WeatherDisplay:10.37,2013-09-03 01:55:00,
2013-09-02 21:00:00,62.2,59.8,29.93,NNE,19,3.5,3.5,92,0.00,SCT,,0.00,0.0,WeatherDisplay:10.37,2013-09-03 02:00:00,
2013-09-02 21:05:00,62.0,59.6,29.94,NNE,19,3.5,3.5,92,0.00,CLR,,0.00,0.0,WeatherDisplay:10.37,2013-09-03 02:05:00,
2013-09-02 21:10:00,61.9,59.5,29.94,NNE,19,3.5,3.5,92,0.00,CLR,,0.00,0.0,WeatherDisplay:10.37,2013-09-03 02:10:00,
2013-09-02 21:15:00,61.7,59.4,29.94,NNE,19,1.1,0.0,92,0.00,CLR,,0.00,0.0,WeatherDisplay:10.37,2013-09-03 02:15:00,
2013-09-02 21:20:00,61.4,59.1,29.93,NNE,19,2.3,2.3,92,0.00,CLR,,0.00,0.0,WeatherDisplay:10.37,2013-09-03 02:20:00,
2013-09-02 21:25:00,61.2,58.9,29.93,NNE,19,2.3,2.3,92,0.00,CLR,,0.00,0.0,WeatherDisplay:10.37,2013-09-03 02:25:00,
2013-09-02 21:30:00,61.1,59.1,29.93,NNE,19,3.5,3.5,93,0.00,CLR,,0.00,0.0,WeatherDisplay:10.37,2013-09-03 02:30:00,
2013-09-02 21:35:00,60.9,58.9,29.94,NNE,19,3.5,3.5,93,0.00,CLR,,0.00,0.0,WeatherDisplay:10.37,2013-09-03 02:35:00,
2013-09-02 21:40:00,60.6,58.6,29.94,NNE,19,2.3,2.3,93,0.00,CLR,,0.00,0.0,WeatherDisplay:10.37,2013-09-03 02:40:00,
2013-09-02 21:45:00,60.4,58.4,29.94,NNE,19,2.3,2.3,93,0.00,CLR,,0.00,0.0,WeatherDisplay:10.37,2013-09-03 02:45:00,
2013-09-02 21:50:00,60.2,58.2,29.94,NNE,19,2.3,2.3,93,0.00,CLR,,0.00,0.0,WeatherDisplay:10.37,2013-09-03 02:50:00,
2013-09-02 21:56:00,60.0,58.0,29.94,NNE,19,2.3,2.3,93,0.00,CLR,,0.00,0.0,WeatherDisplay:10.37,2013-09-03 02:56:00,
2013-09-02 22:00:00,60.0,58.3,29.94,NNE,19,3.5,3.5,94,0.00,CLR,,0.00,0.0,WeatherDisplay:10.37,2013-09-03 03:00:00,
2013-09-02 22:06:00,60.0,58.3,29.95,NNE,19,1.1,1.1,94,0.00,CLR,,0.00,0.0,WeatherDisplay:10.37,2013-09-03 03:06:00,
2013-09-02 22:11:00,59.8,58.1,29.95,NNE,19,2.3,2.3,94,0.00,CLR,,0.00,0.0,WeatherDisplay:10.37,2013-09-03 03:11:00,
2013-09-02 22:16:00,59.8,58.1,29.95,NNE,19,2.3,2.3,94,0.00,CLR,,0.00,0.0,WeatherDisplay:10.37,2013-09-03 03:16:00,
2013-09-02 22:21:00,59.8,58.1,29.95,NNE,19,2.3,2.3,94,0.00,CLR,,0.00,0.0,WeatherDisplay:10.37,2013-09-03 03:21:00,
2013-09-02 22:26:00,59.6,57.9,29.95,NNE,19,3.5,3.5,94,0.00,CLR,,0.00,0.0,WeatherDisplay:10.37,2013-09-03 03:26:00,
2013-09-02 22:31:00,59.7,58.0,29.95,North,351,3.5,3.5,94,0.00,CLR,,0.00,0.0,WeatherDisplay:10.37,2013-09-03 03:31:00,
2013-09-02 22:36:00,59.7,58.0,29.95,North,351,3.5,3.5,94,0.00,CLR,,0.00,0.0,WeatherDisplay:10.37,2013-09-03 03:36:00,
2013-09-02 22:41:00,59.5,57.8,29.95,North,351,2.3,2.3,94,0.00,CLR,,0.00,0.0,WeatherDisplay:10.37,2013-09-03 03:41:00,
2013-09-02 22:46:00,59.4,57.7,29.95,North,351,2.3,2.3,94,0.00,CLR,,0.00,0.0,WeatherDisplay:10.37,2013-09-03 03:46:00,
2013-09-02 22:51:00,59.3,57.6,29.96,North,351,2.3,2.3,94,0.00,CLR,,0.00,0.0,WeatherDisplay:10.37,2013-09-03 03:51:00,
2013-09-02 22:56:00,59.5,58.1,29.96,North,351,3.5,3.5,95,0.00,CLR,,0.00,0.0,WeatherDisplay:10.37,2013-09-03 03:56:00,
2013-09-02 23:01:00,59.4,57.7,29.96,North,351,1.1,1.1,94,0.00,CLR,,0.00,0.0,WeatherDisplay:10.37,2013-09-03 04:01:00,
2013-09-02 23:02:00,59.3,57.6,29.96,North,351,2.3,2.3,94,0.00,CLR,,0.00,0.0,WeatherDisplay:10.37,2013-09-03 04:02:00,
2013-09-02 23:07:00,59.4,57.7,29.96,North,351,2.3,2.3,94,0.00,CLR,,0.00,0.0,WeatherDisplay:10.37,2013-09-03 04:07:00,
2013-09-02 23:12:00,59.4,57.7,29.96,North,351,2.3,2.3,94,0.00,CLR,,0.00,0.0,WeatherDisplay:10.37,2013-09-03 04:12:00,
2013-09-02 23:17:00,59.3,57.6,29.96,North,351,3.5,3.5,94,0.00,CLR,,0.00,0.0,WeatherDisplay:10.37,2013-09-03 04:17:00,
2013-09-02 23:22:00,59.1,57.4,29.96,North,351,3.5,3.5,94,0.00,CLR,,0.00,0.0,WeatherDisplay:10.37,2013-09-03 04:22:00,
2013-09-02 23:27:00,59.0,57.3,29.96,North,351,3.5,3.5,94,0.00,CLR,,0.00,0.0,WeatherDisplay:10.37,2013-09-03 04:27:00,
2013-09-02 23:32:00,59.0,57.3,29.96,North,351,2.3,2.3,94,0.00,CLR,,0.00,0.0,WeatherDisplay:10.37,2013-09-03 04:32:00,
2013-09-02 23:37:00,59.4,58.0,29.96,North,351,3.5,3.5,95,0.00,CLR,,0.00,0.0,WeatherDisplay:10.37,2013-09-03 04:37:00,
2013-09-02 23:42:00,59.8,58.4,29.96,North,351,3.5,3.5,95,0.00,CLR,,0.00,0.0,WeatherDisplay:10.37,2013-09-03 04:42:00,
2013-09-02 23:47:00,60.2,58.8,29.96,North,351,3.5,3.5,95,0.00,SCT,,0.00,0.0,WeatherDisplay:10.37,2013-09-03 04:47:00,
2013-09-02 23:52:00,60.4,59.0,29.96,North,351,1.1,1.1,95,0.00,SCT,,0.00,0.0,WeatherDisplay:10.37,2013-09-03 04:52:00,
2013-09-02 23:57:00,60.3,58.6,29.96,North,351,1.1,1.1,94,0.00,SCT,,0.00,0.0,WeatherDisplay:10.37,2013-09-03 04:57:00,